Current Weather

Chicago Executive

Wheeling, Illinois (KPWK)

Report from: Wednesday, April 24, 2024 1:52 PM CDT
Current time: Wednesday, April 24, 2024 2:33 PM CDT

Nearby weather – Weather history – Daily summaries
Weather forecast

Temperature7.2°C (45.0°F)
Wind chill3.8°C (38.9°F)
Dew point-0.6°C (30.9°F)
Winds 11 kts (5.7 m/s, 12.7 mph) Northeast (50°)
Wind gusts 17 kts (8.7 m/s, 19.6 mph)
Visibility10 mi. (16.1 km)
Clouds Sky clear
Altimeter30.31 in.Hg (1026 mB)
Relative humidity58 %
Density altitude-1,310 ft. (-399 m)
Sea-level pressure102.7 kPa (1027 mB, 30.32 in.Hg)
Remarks System requires maintenance
Automated weather observing station with precipitation discriminator
Flight conditions Visual Meteorological Conditions
Raw dataKPWK 241852Z 05011G17KT 10SM CLR 07/M01 A3031 RMK AO2 SLP269 T00721006 $
An error has occurred. This application may no longer respond until reloaded. Reload 🗙